Terminal Aerodrome Forecast
Issued by NWS

Current Version | Previous Version | Text Only | Print | Product List | Glossary Off
Versions: 1 2 3 4 5 6 7 8 9 10 11 12 13 14 15 16 17 18 19 20 21 22

000
FTUS41 KRLX 200500
TAFCKB
TAF
KCKB 200537Z 2006/2106 25010G18KT P6SM OVC050
     FM201000 24008KT 5SM -SN OVC035
     FM201700 26007KT P6SM SCT035
     FM202300 26007KT P6SM BKN035
     FM210500 27008KT 5SM -SN BKN025=

USA.gov is the U.S. government's official web portal to all federal, state and local government web resources and services.